createdAt,value
2018-09-27T00:00:13.701Z,15.60
2018-09-27T00:00:46.902Z,15.60
2018-09-27T00:01:20.120Z,15.60
2018-09-27T00:01:53.268Z,15.60
2018-09-27T00:02:26.581Z,15.50
2018-09-27T00:02:59.944Z,15.60
2018-09-27T00:03:33.295Z,15.50
2018-09-27T00:04:06.652Z,15.50
2018-09-27T00:04:39.935Z,15.50
2018-09-27T00:05:13.341Z,15.50
2018-09-27T00:05:47.773Z,15.50
2018-09-27T00:06:21.334Z,15.50
2018-09-27T00:06:55.064Z,15.50
2018-09-27T00:07:28.496Z,15.50
2018-09-27T00:08:01.905Z,15.50
2018-09-27T00:08:35.446Z,15.50
2018-09-27T00:09:09.016Z,15.50
2018-09-27T00:09:42.492Z,15.50
2018-09-27T00:10:15.699Z,15.50
2018-09-27T00:10:48.919Z,15.50
2018-09-27T00:11:23.071Z,15.50
2018-09-27T00:11:56.225Z,15.50
2018-09-27T00:12:29.502Z,15.50
2018-09-27T00:13:02.698Z,15.50
2018-09-27T00:13:36.623Z,15.50
2018-09-27T00:14:09.804Z,15.50
2018-09-27T00:14:43.051Z,15.50
2018-09-27T00:15:16.437Z,15.50
2018-09-27T00:15:49.657Z,15.50
2018-09-27T00:16:22.913Z,15.50
2018-09-27T00:16:56.153Z,15.50
2018-09-27T00:17:29.316Z,15.60
2018-09-27T00:18:02.559Z,15.60
2018-09-27T00:18:35.726Z,15.60
2018-09-27T00:19:09.244Z,15.60
2018-09-27T00:19:42.495Z,15.60
2018-09-27T00:20:15.658Z,15.60
2018-09-27T00:20:48.838Z,15.60
2018-09-27T00:21:52.631Z,15.60
2018-09-27T00:22:25.884Z,15.60
2018-09-27T00:22:59.095Z,15.60
2018-09-27T00:23:32.295Z,15.60
2018-09-27T00:24:05.520Z,15.60
2018-09-27T00:24:38.781Z,15.60
2018-09-27T00:25:11.987Z,15.60
2018-09-27T00:25:45.199Z,15.60
2018-09-27T00:26:18.603Z,15.60
2018-09-27T00:26:51.843Z,15.60
2018-09-27T00:27:25.937Z,15.60
2018-09-27T00:27:59.102Z,15.60
2018-09-27T00:28:32.289Z,15.60
2018-09-27T00:29:05.484Z,15.60
2018-09-27T00:29:38.661Z,15.60
2018-09-27T00:30:11.814Z,15.60
2018-09-27T00:30:47.270Z,15.60
2018-09-27T00:32:16.724Z,15.60
2018-09-27T00:32:50.905Z,15.60
2018-09-27T00:33:27.028Z,15.60
2018-09-27T00:34:00.965Z,15.60
2018-09-27T00:34:34.515Z,15.60
2018-09-27T00:35:08.057Z,15.60
2018-09-27T00:35:42.748Z,15.60
2018-09-27T00:36:16.607Z,15.60
2018-09-27T00:36:51.126Z,15.60
2018-09-27T00:37:24.675Z,15.60
2018-09-27T00:37:57.885Z,15.60
2018-09-27T00:38:31.727Z,15.60
2018-09-27T00:39:07.892Z,15.60
2018-09-27T00:39:41.880Z,15.60
2018-09-27T00:40:16.202Z,15.60
2018-09-27T00:40:50.304Z,15.60
2018-09-27T00:41:23.502Z,15.60
2018-09-27T00:41:56.715Z,15.60
2018-09-27T00:42:29.892Z,15.60
2018-09-27T00:43:03.058Z,15.60
2018-09-27T00:43:36.226Z,15.60
2018-09-27T00:44:09.414Z,15.60
2018-09-27T00:44:42.911Z,15.60
2018-09-27T00:45:16.122Z,15.60
2018-09-27T00:45:49.262Z,15.60
2018-09-27T00:46:22.818Z,15.60
2018-09-27T00:46:56.021Z,15.60
2018-09-27T00:47:29.205Z,15.60
2018-09-27T00:48:02.424Z,15.60
2018-09-27T00:48:35.637Z,15.60
2018-09-27T00:49:08.820Z,15.60
2018-09-27T00:49:41.985Z,15.60
2018-09-27T00:50:15.137Z,15.60
2018-09-27T00:50:48.314Z,15.60
2018-09-27T00:51:21.513Z,15.60
2018-09-27T00:51:54.674Z,15.60
2018-09-27T00:52:28.068Z,15.60
2018-09-27T00:53:01.216Z,15.60
2018-09-27T00:53:34.896Z,15.60
2018-09-27T00:54:08.072Z,15.60
2018-09-27T00:54:41.249Z,15.60
2018-09-27T00:55:14.435Z,15.60
2018-09-27T00:55:47.622Z,15.60
2018-09-27T00:56:21.357Z,15.60
2018-09-27T00:56:54.790Z,15.60
2018-09-27T00:57:29.219Z,15.60
2018-09-27T00:58:02.707Z,15.70
2018-09-27T00:58:36.367Z,15.60
2018-09-27T00:59:10.620Z,15.60
2018-09-27T00:59:44.026Z,15.70
2018-09-27T01:00:17.511Z,15.70
2018-09-27T01:00:51.467Z,15.60
2018-09-27T01:01:25.048Z,15.60
2018-09-27T01:01:58.546Z,15.60
2018-09-27T01:02:32.301Z,15.60
2018-09-27T01:03:05.804Z,15.60
2018-09-27T01:03:39.421Z,15.70
2018-09-27T01:04:12.886Z,15.70
2018-09-27T01:04:46.613Z,15.70
2018-09-27T01:05:21.486Z,15.70
2018-09-27T01:05:55.180Z,15.70
2018-09-27T01:06:28.892Z,15.70
2018-09-27T01:07:02.774Z,15.70
2018-09-27T01:07:36.899Z,15.70
2018-09-27T01:08:10.365Z,15.70
2018-09-27T01:08:43.839Z,15.70
2018-09-27T01:09:17.245Z,15.70
2018-09-27T01:09:50.706Z,15.70
2018-09-27T01:10:24.190Z,15.70
2018-09-27T01:10:57.734Z,15.80
2018-09-27T01:11:31.148Z,15.70
2018-09-27T01:12:04.649Z,15.70
2018-09-27T01:12:38.430Z,15.70
2018-09-27T01:13:11.951Z,15.70
2018-09-27T01:13:45.497Z,15.70
2018-09-27T01:14:18.702Z,15.80
2018-09-27T01:14:51.882Z,15.70
2018-09-27T01:15:25.056Z,15.80
2018-09-27T01:15:58.280Z,15.70
2018-09-27T01:16:31.464Z,15.70
2018-09-27T01:17:04.657Z,15.70
2018-09-27T01:17:37.900Z,15.70
2018-09-27T01:18:11.115Z,15.70
2018-09-27T01:18:44.574Z,15.70
2018-09-27T01:19:18.081Z,15.70
2018-09-27T01:19:51.288Z,15.70
2018-09-27T01:20:24.454Z,15.70
2018-09-27T01:20:57.625Z,15.70
2018-09-27T01:21:31.056Z,15.70
2018-09-27T01:22:04.269Z,15.70
2018-09-27T01:22:37.472Z,15.70
2018-09-27T01:23:10.701Z,15.60
2018-09-27T01:23:43.917Z,15.60
2018-09-27T01:24:17.178Z,15.70
2018-09-27T01:24:50.657Z,15.60
2018-09-27T01:25:24.018Z,15.70
2018-09-27T01:25:57.440Z,15.70
2018-09-27T01:26:30.942Z,15.60
2018-09-27T01:27:04.481Z,15.70
2018-09-27T01:27:38.035Z,15.70
2018-09-27T01:28:11.468Z,15.70
2018-09-27T01:28:45.055Z,15.60
2018-09-27T01:29:18.615Z,15.60
2018-09-27T01:29:52.061Z,15.60
2018-09-27T01:30:25.381Z,15.70
2018-09-27T01:31:05.671Z,15.60
2018-09-27T01:31:39.115Z,15.70
2018-09-27T01:32:12.618Z,15.70
2018-09-27T01:32:46.168Z,15.60
2018-09-27T01:33:19.582Z,15.60
2018-09-27T01:33:52.984Z,15.60
2018-09-27T01:34:26.339Z,15.60
2018-09-27T01:34:59.697Z,15.70
2018-09-27T01:35:33.383Z,15.60
2018-09-27T01:36:06.972Z,15.70
2018-09-27T01:36:40.729Z,15.70
2018-09-27T01:37:14.184Z,15.70
2018-09-27T01:37:47.580Z,15.70
2018-09-27T01:38:21.184Z,15.70
2018-09-27T01:38:56.629Z,15.70
2018-09-27T01:39:30.205Z,15.70
2018-09-27T01:40:04.047Z,15.70
2018-09-27T01:40:37.477Z,15.70
2018-09-27T01:41:11.191Z,15.70
2018-09-27T01:41:44.677Z,15.70
2018-09-27T01:42:18.257Z,15.70
2018-09-27T01:42:51.853Z,15.70
2018-09-27T01:43:26.108Z,15.70
2018-09-27T01:43:59.544Z,15.70
2018-09-27T01:44:32.952Z,15.70
2018-09-27T01:45:06.502Z,15.70
2018-09-27T01:45:40.160Z,15.70
2018-09-27T01:46:13.681Z,15.70
2018-09-27T01:46:47.524Z,15.70
2018-09-27T01:47:21.058Z,15.70
2018-09-27T01:47:54.512Z,15.80
2018-09-27T01:48:28.079Z,15.80
2018-09-27T01:49:02.782Z,15.80
2018-09-27T01:49:36.371Z,15.80
2018-09-27T01:50:09.650Z,15.70
2018-09-27T01:50:42.855Z,15.70
2018-09-27T01:51:16.086Z,15.70
2018-09-27T01:51:49.305Z,15.70
2018-09-27T01:52:22.573Z,15.70
2018-09-27T01:52:55.790Z,15.70
2018-09-27T01:53:29.001Z,15.70
2018-09-27T01:54:02.204Z,15.70
2018-09-27T01:54:35.501Z,15.70
2018-09-27T01:55:08.682Z,15.70
2018-09-27T01:55:41.939Z,15.70
2018-09-27T01:56:15.765Z,15.70
2018-09-27T01:56:48.946Z,15.70
2018-09-27T01:57:22.138Z,15.70
2018-09-27T01:57:55.358Z,15.70
2018-09-27T01:58:28.707Z,15.80
2018-09-27T01:59:01.961Z,15.80
2018-09-27T01:59:35.775Z,15.80
2018-09-27T02:00:08.934Z,15.70
2018-09-27T02:00:42.191Z,15.80
2018-09-27T02:01:15.395Z,15.80
2018-09-27T02:01:48.571Z,15.80
2018-09-27T02:02:21.720Z,15.80
2018-09-27T02:03:01.724Z,15.80
2018-09-27T02:03:35.042Z,15.80
2018-09-27T02:04:08.344Z,15.80
2018-09-27T02:04:41.576Z,15.80
2018-09-27T02:05:14.786Z,15.80
2018-09-27T02:05:47.968Z,15.80
2018-09-27T02:06:21.115Z,15.80
2018-09-27T02:06:54.308Z,15.70
2018-09-27T02:07:27.482Z,15.80
2018-09-27T02:08:01.261Z,15.70
2018-09-27T02:08:34.490Z,15.70
2018-09-27T02:09:08.993Z,15.80
2018-09-27T02:09:42.191Z,15.80
2018-09-27T02:10:15.387Z,15.70
2018-09-27T02:10:48.630Z,15.70
2018-09-27T02:11:21.830Z,15.80
2018-09-27T02:11:54.983Z,15.80
2018-09-27T02:12:28.222Z,15.70
2018-09-27T02:13:01.413Z,15.80
2018-09-27T02:13:34.626Z,15.80
2018-09-27T02:14:07.904Z,15.80
2018-09-27T02:14:41.135Z,15.70
2018-09-27T02:15:14.346Z,15.80
2018-09-27T02:15:47.634Z,15.80
2018-09-27T02:16:20.888Z,15.80
2018-09-27T02:16:54.050Z,15.80
2018-09-27T02:17:27.312Z,15.80
2018-09-27T02:18:00.590Z,15.90
2018-09-27T02:18:33.736Z,15.80
2018-09-27T02:19:06.965Z,15.80
2018-09-27T02:19:40.359Z,15.80
2018-09-27T02:20:13.542Z,15.80
2018-09-27T02:20:46.787Z,15.90
2018-09-27T02:21:19.936Z,15.90
2018-09-27T02:21:56.015Z,15.90
2018-09-27T02:22:29.347Z,15.90
2018-09-27T02:23:02.611Z,15.90
2018-09-27T02:23:36.036Z,15.80
2018-09-27T02:24:09.189Z,15.80
2018-09-27T02:24:42.387Z,15.80
2018-09-27T02:25:16.104Z,15.80
2018-09-27T02:25:49.421Z,15.80
2018-09-27T02:26:22.617Z,15.80
2018-09-27T02:26:55.786Z,15.80
2018-09-27T02:27:29.021Z,15.80
2018-09-27T02:28:02.203Z,15.80
2018-09-27T02:28:35.407Z,15.80
2018-09-27T02:29:08.631Z,15.80
2018-09-27T02:29:41.828Z,15.80
2018-09-27T02:30:15.015Z,15.80
2018-09-27T02:30:48.217Z,15.80
2018-09-27T02:31:21.408Z,15.80
2018-09-27T02:31:54.725Z,15.80
2018-09-27T02:32:27.890Z,15.80
2018-09-27T02:33:01.079Z,15.80
2018-09-27T02:33:34.246Z,15.80
2018-09-27T02:34:07.585Z,15.80
2018-09-27T02:34:40.801Z,15.80
2018-09-27T02:35:14.219Z,15.80
2018-09-27T02:35:47.369Z,15.80
2018-09-27T02:36:20.546Z,15.90
2018-09-27T02:36:53.742Z,15.90
2018-09-27T02:37:27.017Z,15.80
2018-09-27T02:38:00.224Z,15.80
2018-09-27T02:38:33.701Z,15.80
2018-09-27T02:39:08.503Z,15.80
2018-09-27T02:39:41.753Z,15.80
2018-09-27T02:40:15.059Z,15.80
2018-09-27T02:40:48.309Z,15.80
2018-09-27T02:41:21.452Z,15.80
2018-09-27T02:41:54.665Z,15.80
2018-09-27T02:42:27.827Z,15.80
2018-09-27T02:43:01.067Z,15.90
2018-09-27T02:43:34.235Z,15.80
2018-09-27T02:44:07.604Z,15.90
2018-09-27T02:44:40.793Z,15.80
2018-09-27T02:45:13.970Z,15.80
2018-09-27T02:45:47.170Z,15.90
2018-09-27T02:46:20.433Z,15.80
2018-09-27T02:46:53.997Z,15.80
2018-09-27T02:47:27.510Z,15.80
2018-09-27T02:48:00.726Z,15.80
2018-09-27T02:48:33.931Z,15.80
2018-09-27T02:49:07.192Z,15.80
2018-09-27T02:49:41.350Z,15.80
2018-09-27T02:50:14.546Z,15.80
2018-09-27T02:50:47.813Z,15.80
2018-09-27T02:51:20.950Z,15.80
2018-09-27T02:51:54.731Z,15.80
2018-09-27T02:52:27.933Z,15.80
2018-09-27T02:53:01.094Z,15.80
2018-09-27T02:53:34.308Z,15.80
2018-09-27T02:54:07.478Z,15.80
2018-09-27T02:54:40.702Z,15.80
2018-09-27T02:55:13.926Z,15.80
2018-09-27T02:55:47.155Z,15.80
2018-09-27T02:56:20.546Z,15.80
2018-09-27T02:56:53.792Z,15.70
2018-09-27T02:57:26.961Z,15.80
2018-09-27T02:58:00.140Z,15.70
2018-09-27T02:58:33.392Z,15.80
2018-09-27T02:59:06.550Z,15.80
2018-09-27T02:59:39.840Z,15.80
2018-09-27T03:00:13.078Z,15.70
2018-09-27T03:00:46.697Z,15.70
2018-09-27T03:01:20.863Z,15.70
2018-09-27T03:01:54.007Z,15.70
2018-09-27T03:02:27.269Z,15.70
2018-09-27T03:03:00.506Z,15.70
2018-09-27T03:03:33.678Z,15.70
2018-09-27T03:04:07.203Z,15.80
2018-09-27T03:04:40.388Z,15.80
2018-09-27T03:05:13.760Z,15.80
2018-09-27T03:05:46.930Z,15.70
2018-09-27T03:06:20.140Z,15.70
2018-09-27T03:06:53.374Z,15.70
2018-09-27T03:07:26.563Z,15.80
2018-09-27T03:07:59.922Z,15.80
2018-09-27T03:08:33.169Z,15.70
2018-09-27T03:09:08.658Z,15.70
2018-09-27T03:09:42.285Z,15.80
2018-09-27T03:10:15.538Z,15.70
2018-09-27T03:10:48.861Z,15.70
2018-09-27T03:11:22.120Z,15.70
2018-09-27T03:11:55.358Z,15.80
2018-09-27T03:12:28.589Z,15.80
2018-09-27T03:13:01.901Z,15.70
2018-09-27T03:13:35.167Z,15.80
2018-09-27T03:14:08.382Z,15.70
2018-09-27T03:14:41.640Z,15.80
2018-09-27T03:15:14.828Z,15.70
2018-09-27T03:15:48.060Z,15.70
2018-09-27T03:16:21.258Z,15.70
2018-09-27T03:16:54.457Z,15.70
2018-09-27T03:17:27.743Z,15.80
2018-09-27T03:18:01.039Z,15.80
2018-09-27T03:18:35.377Z,15.70
2018-09-27T03:19:08.576Z,15.80
2018-09-27T03:19:41.829Z,15.70
2018-09-27T03:20:15.649Z,15.70
2018-09-27T03:20:49.040Z,15.70
2018-09-27T03:21:22.221Z,15.80
2018-09-27T03:21:55.455Z,15.70
2018-09-27T03:22:28.699Z,15.80
2018-09-27T03:23:02.237Z,15.80
2018-09-27T03:23:35.427Z,15.70
2018-09-27T03:24:08.772Z,15.70
2018-09-27T03:24:41.987Z,15.70
2018-09-27T03:25:15.269Z,15.70
2018-09-27T03:25:48.611Z,15.70
2018-09-27T03:26:21.785Z,15.70
2018-09-27T03:26:55.038Z,15.70
2018-09-27T03:27:28.245Z,15.80
2018-09-27T03:28:02.262Z,15.80
2018-09-27T03:28:35.467Z,15.70
2018-09-27T03:29:08.728Z,15.70
2018-09-27T03:29:41.973Z,15.70
2018-09-27T03:30:15.188Z,15.70
2018-09-27T03:30:48.457Z,15.80
2018-09-27T03:31:21.763Z,15.70
2018-09-27T03:31:54.936Z,15.80
2018-09-27T03:32:28.155Z,15.70
2018-09-27T03:33:01.414Z,15.80
2018-09-27T03:33:34.609Z,15.80
2018-09-27T03:34:07.867Z,15.80
2018-09-27T03:34:41.190Z,15.80
2018-09-27T03:35:14.439Z,15.80
2018-09-27T03:35:47.634Z,15.80
2018-09-27T03:36:20.840Z,15.80
2018-09-27T03:36:54.036Z,15.80
2018-09-27T03:38:07.067Z,15.80
2018-09-27T03:38:40.330Z,15.90
2018-09-27T03:39:13.530Z,15.80
2018-09-27T03:39:46.770Z,15.80
2018-09-27T03:40:20.170Z,15.90
2018-09-27T03:40:53.349Z,15.80
2018-09-27T03:41:26.621Z,15.90
2018-09-27T03:41:59.909Z,15.90
2018-09-27T03:42:33.238Z,15.90
2018-09-27T03:43:06.588Z,15.90
2018-09-27T03:43:39.957Z,15.90
2018-09-27T03:44:13.619Z,15.90
2018-09-27T03:44:46.880Z,15.90
2018-09-27T03:45:20.210Z,15.80
2018-09-27T03:45:53.487Z,15.80
2018-09-27T03:46:26.924Z,15.80
2018-09-27T03:47:00.203Z,15.80
2018-09-27T03:47:33.572Z,15.80
2018-09-27T03:48:06.833Z,15.80
2018-09-27T03:48:40.101Z,15.80
2018-09-27T03:49:13.287Z,15.80
2018-09-27T03:49:46.525Z,15.80
2018-09-27T03:50:19.742Z,15.80
2018-09-27T03:50:53.271Z,15.80
2018-09-27T03:51:26.455Z,15.80
2018-09-27T03:51:59.667Z,15.80
2018-09-27T03:52:33.046Z,15.80
2018-09-27T03:53:06.312Z,15.80
2018-09-27T03:53:39.672Z,15.80
2018-09-27T03:54:13.201Z,15.80
2018-09-27T03:54:46.430Z,15.80
2018-09-27T03:55:19.690Z,15.80
2018-09-27T03:55:52.962Z,15.80
2018-09-27T03:56:29.630Z,15.80
2018-09-27T03:57:02.944Z,15.80
2018-09-27T03:57:36.466Z,15.70
2018-09-27T03:58:10.432Z,15.80
2018-09-27T03:58:43.710Z,15.80
2018-09-27T03:59:16.945Z,15.80
2018-09-27T03:59:50.132Z,15.80
2018-09-27T04:00:23.386Z,15.80
2018-09-27T04:00:56.664Z,15.70
2018-09-27T04:01:30.001Z,15.80
2018-09-27T04:02:03.637Z,15.80
2018-09-27T04:02:37.056Z,15.80
2018-09-27T04:03:10.317Z,15.80
2018-09-27T04:03:43.704Z,15.70
2018-09-27T04:04:16.939Z,15.80
2018-09-27T04:04:50.161Z,15.70
2018-09-27T04:05:23.424Z,15.70
2018-09-27T04:05:56.729Z,15.70
2018-09-27T04:06:29.998Z,15.70
2018-09-27T04:07:03.253Z,15.70
2018-09-27T04:07:36.478Z,15.70
2018-09-27T04:08:09.758Z,15.70
2018-09-27T04:08:43.194Z,15.70
2018-09-27T04:09:16.419Z,15.70
2018-09-27T04:09:49.700Z,15.70
2018-09-27T04:10:22.955Z,15.70
2018-09-27T04:10:56.209Z,15.70
2018-09-27T04:11:29.898Z,15.70
2018-09-27T04:12:03.139Z,15.70
2018-09-27T04:12:36.410Z,15.70
2018-09-27T04:13:09.773Z,15.70
2018-09-27T04:13:43.075Z,15.70
2018-09-27T04:14:16.322Z,15.70
2018-09-27T04:14:49.640Z,15.70
2018-09-27T04:15:22.930Z,15.70
2018-09-27T04:15:56.209Z,15.70
2018-09-27T04:16:29.506Z,15.70
2018-09-27T04:17:02.852Z,15.70
2018-09-27T04:17:36.089Z,15.80
2018-09-27T04:18:09.356Z,15.80
2018-09-27T04:18:42.855Z,15.70
2018-09-27T04:19:16.008Z,15.80
2018-09-27T04:19:49.233Z,15.80
2018-09-27T04:20:22.425Z,15.80
2018-09-27T04:20:55.650Z,15.80
2018-09-27T04:21:28.857Z,15.80
2018-09-27T04:22:02.067Z,15.80
2018-09-27T04:22:35.320Z,15.80
2018-09-27T04:23:08.470Z,15.80
2018-09-27T04:23:41.668Z,15.80
2018-09-27T04:24:14.937Z,15.80
2018-09-27T04:24:48.168Z,15.80
2018-09-27T04:25:21.361Z,15.80
2018-09-27T04:25:54.699Z,15.80
2018-09-27T04:26:28.071Z,15.80
2018-09-27T04:27:01.293Z,15.80
2018-09-27T04:27:34.533Z,15.80
2018-09-27T04:28:07.748Z,15.80
2018-09-27T04:28:40.944Z,15.80
2018-09-27T04:29:14.182Z,15.90
2018-09-27T04:29:47.458Z,15.90
2018-09-27T04:30:21.366Z,15.90
2018-09-27T04:30:54.999Z,15.90
2018-09-27T04:31:28.477Z,15.90
2018-09-27T04:32:01.847Z,15.90
2018-09-27T04:32:35.357Z,15.90
2018-09-27T04:33:08.657Z,15.80
2018-09-27T04:33:42.073Z,15.90
2018-09-27T04:34:16.282Z,15.80
2018-09-27T04:34:49.489Z,15.80
2018-09-27T04:35:23.106Z,15.80
2018-09-27T04:35:56.467Z,15.80
2018-09-27T04:36:30.693Z,15.80
2018-09-27T04:37:04.199Z,15.80
2018-09-27T04:37:37.945Z,15.80
2018-09-27T04:38:11.868Z,15.90
2018-09-27T04:38:46.309Z,15.80
2018-09-27T04:39:20.481Z,15.90
2018-09-27T04:39:54.059Z,15.90
2018-09-27T04:40:27.610Z,15.90
2018-09-27T04:41:01.191Z,15.90
2018-09-27T04:41:35.448Z,15.90
2018-09-27T04:42:09.001Z,15.80
2018-09-27T04:42:42.778Z,15.80
2018-09-27T04:43:16.370Z,15.80
2018-09-27T04:43:49.741Z,15.90
2018-09-27T04:44:22.930Z,15.90
2018-09-27T04:44:56.184Z,15.80
2018-09-27T04:45:29.756Z,15.80
2018-09-27T04:46:03.217Z,15.80
2018-09-27T04:46:36.651Z,15.80
2018-09-27T04:47:10.014Z,15.80
2018-09-27T04:47:43.432Z,15.90
2018-09-27T04:48:16.758Z,15.80
2018-09-27T04:48:50.173Z,15.80
2018-09-27T04:49:23.866Z,15.90
2018-09-27T04:49:57.130Z,15.90
2018-09-27T04:50:30.479Z,15.90
2018-09-27T04:51:03.862Z,15.90
2018-09-27T04:51:37.218Z,15.90
2018-09-27T04:52:10.497Z,15.90
2018-09-27T04:52:43.786Z,15.90
2018-09-27T04:53:17.151Z,15.90
2018-09-27T04:53:50.396Z,15.90
2018-09-27T04:54:23.883Z,15.90
2018-09-27T04:54:57.185Z,15.90
2018-09-27T04:55:30.453Z,15.80
2018-09-27T04:56:04.096Z,15.90
2018-09-27T04:56:38.005Z,15.90
2018-09-27T04:57:11.422Z,15.90
2018-09-27T04:57:44.788Z,15.90
2018-09-27T04:58:17.985Z,15.90
2018-09-27T04:58:52.114Z,15.90
2018-09-27T04:59:26.145Z,15.90
2018-09-27T04:59:59.818Z,15.90
2018-09-27T05:00:33.042Z,15.90
2018-09-27T05:01:06.361Z,15.90
2018-09-27T05:01:39.854Z,15.90
2018-09-27T05:02:13.946Z,15.90
2018-09-27T05:02:47.671Z,15.90
2018-09-27T05:03:21.095Z,15.90
2018-09-27T05:03:54.577Z,15.90
2018-09-27T05:04:28.077Z,15.90
2018-09-27T05:05:01.789Z,15.90
2018-09-27T05:05:35.253Z,15.90
2018-09-27T05:06:08.670Z,15.90
2018-09-27T05:06:42.139Z,15.90
2018-09-27T05:07:15.782Z,15.80
2018-09-27T05:07:49.843Z,15.80
2018-09-27T05:08:23.610Z,15.80
2018-09-27T05:08:57.173Z,15.90
2018-09-27T05:09:30.555Z,15.90
2018-09-27T05:10:04.203Z,15.80
2018-09-27T05:10:38.188Z,15.90
2018-09-27T05:11:11.440Z,15.90
2018-09-27T05:11:45.550Z,15.90
2018-09-27T05:12:19.129Z,15.90
2018-09-27T05:12:53.310Z,15.80
2018-09-27T05:13:26.689Z,15.80
2018-09-27T05:14:00.206Z,15.80
2018-09-27T05:14:34.624Z,15.80
2018-09-27T05:15:08.274Z,15.80
2018-09-27T05:15:42.050Z,15.80
2018-09-27T05:16:15.692Z,15.80
2018-09-27T05:16:49.201Z,15.80
2018-09-27T05:17:23.079Z,15.80
2018-09-27T05:17:56.296Z,15.80
2018-09-27T05:18:30.425Z,15.80
2018-09-27T05:19:04.184Z,15.80
2018-09-27T05:19:37.687Z,15.80
2018-09-27T05:20:10.964Z,15.80
2018-09-27T05:20:44.183Z,15.80
2018-09-27T05:21:17.508Z,15.90
2018-09-27T05:21:50.941Z,15.80
2018-09-27T05:22:24.596Z,15.80
2018-09-27T05:22:58.307Z,15.90
2018-09-27T05:23:31.588Z,15.90
2018-09-27T05:24:04.854Z,15.90
2018-09-27T05:24:38.261Z,15.90
2018-09-27T05:25:11.558Z,15.90
2018-09-27T05:25:45.123Z,15.90
2018-09-27T05:26:18.389Z,15.90
2018-09-27T05:26:52.241Z,15.90
2018-09-27T05:27:25.788Z,15.90
2018-09-27T05:27:59.884Z,15.90
2018-09-27T05:28:33.360Z,15.90
2018-09-27T05:29:07.048Z,15.90
2018-09-27T05:29:40.416Z,15.90
2018-09-27T05:30:13.877Z,15.90
2018-09-27T05:30:47.191Z,15.90
2018-09-27T05:31:20.354Z,15.90
2018-09-27T05:31:53.801Z,15.90
2018-09-27T05:32:27.198Z,15.90
2018-09-27T05:33:00.489Z,15.90
2018-09-27T05:33:34.157Z,15.90
2018-09-27T05:34:07.469Z,15.90
2018-09-27T05:34:41.584Z,15.90
2018-09-27T05:35:15.075Z,15.90
2018-09-27T05:35:48.611Z,15.90
2018-09-27T05:36:22.354Z,15.90
2018-09-27T05:36:55.909Z,15.90
2018-09-27T05:37:29.184Z,15.90
2018-09-27T05:38:02.843Z,15.90
2018-09-27T05:38:36.148Z,15.90
2018-09-27T05:39:10.484Z,15.90
2018-09-27T05:39:43.911Z,15.90
2018-09-27T05:40:17.247Z,15.90
2018-09-27T05:40:50.576Z,15.90
2018-09-27T05:41:23.839Z,15.90
2018-09-27T05:41:57.209Z,15.90
2018-09-27T05:42:30.797Z,15.90
2018-09-27T05:43:04.131Z,15.90
2018-09-27T05:43:37.672Z,15.90
2018-09-27T05:44:12.225Z,16.00
2018-09-27T05:44:46.024Z,16.00
2018-09-27T05:45:19.447Z,15.90
2018-09-27T05:45:52.916Z,15.90
2018-09-27T05:46:26.222Z,15.90
2018-09-27T05:47:00.004Z,15.90
2018-09-27T05:47:34.371Z,15.90
2018-09-27T05:48:07.995Z,16.00
2018-09-27T05:48:41.945Z,16.00
2018-09-27T05:49:15.397Z,16.00
2018-09-27T05:49:48.673Z,16.00
2018-09-27T05:50:22.489Z,16.00
2018-09-27T05:50:55.801Z,16.00
2018-09-27T05:51:29.220Z,16.00
2018-09-27T05:52:02.630Z,16.00
2018-09-27T05:52:36.555Z,16.00
2018-09-27T05:53:10.224Z,16.00
2018-09-27T05:53:43.561Z,15.90
2018-09-27T05:54:17.048Z,15.90
2018-09-27T05:54:50.292Z,15.90
2018-09-27T05:55:23.910Z,16.00
2018-09-27T05:55:57.380Z,15.90
2018-09-27T05:56:30.880Z,15.90
2018-09-27T05:57:04.141Z,16.00
2018-09-27T05:57:37.592Z,15.90
2018-09-27T05:58:10.892Z,16.00
2018-09-27T05:58:44.455Z,16.00
2018-09-27T05:59:18.438Z,16.00
2018-09-27T05:59:51.899Z,16.00
2018-09-27T06:00:25.449Z,16.00
2018-09-27T06:00:59.169Z,16.00
2018-09-27T06:01:32.579Z,16.00
2018-09-27T06:02:06.578Z,16.00
2018-09-27T06:02:40.538Z,16.00
2018-09-27T06:03:13.941Z,16.00
2018-09-27T06:03:47.358Z,16.00
2018-09-27T06:04:20.774Z,16.10
2018-09-27T06:04:54.113Z,16.00
2018-09-27T06:05:27.368Z,16.00
2018-09-27T06:06:00.743Z,16.00
2018-09-27T06:06:33.994Z,16.10
2018-09-27T06:07:08.235Z,16.10
2018-09-27T06:07:41.535Z,16.00
2018-09-27T06:08:14.845Z,16.00
2018-09-27T06:08:48.143Z,16.00
2018-09-27T06:09:21.379Z,16.00
2018-09-27T06:09:54.903Z,16.00
2018-09-27T06:10:28.202Z,16.00
2018-09-27T06:11:01.935Z,16.00
2018-09-27T06:11:35.147Z,16.00
2018-09-27T06:12:10.281Z,16.00
2018-09-27T06:12:43.891Z,16.00
2018-09-27T06:13:17.303Z,16.00
2018-09-27T06:13:50.672Z,16.10
2018-09-27T06:14:23.949Z,16.10
2018-09-27T06:14:57.619Z,16.10
2018-09-27T06:15:31.198Z,16.20
2018-09-27T06:16:11.250Z,16.10
2018-09-27T06:16:44.530Z,16.10
2018-09-27T06:17:17.808Z,16.10
2018-09-27T06:17:51.117Z,16.20
2018-09-27T06:18:24.451Z,16.20
2018-09-27T06:18:57.694Z,16.20
2018-09-27T06:19:31.097Z,16.20
2018-09-27T06:20:04.466Z,16.20
2018-09-27T06:20:37.857Z,16.20
2018-09-27T06:21:13.241Z,16.20
2018-09-27T06:21:46.664Z,16.20
2018-09-27T06:22:19.854Z,16.20
2018-09-27T06:22:55.239Z,16.20
2018-09-27T06:23:28.444Z,16.20
2018-09-27T06:24:01.707Z,16.20
2018-09-27T06:24:35.136Z,16.20
2018-09-27T06:25:08.615Z,16.20
2018-09-27T06:25:41.880Z,16.20
2018-09-27T06:26:15.228Z,16.20
2018-09-27T06:26:48.997Z,16.20
2018-09-27T06:27:22.897Z,16.20
2018-09-27T06:27:56.107Z,16.20
2018-09-27T06:28:29.371Z,16.20
2018-09-27T06:29:02.713Z,16.20
2018-09-27T06:29:36.638Z,16.20
2018-09-27T06:30:09.939Z,16.30
2018-09-27T06:30:43.722Z,16.30
2018-09-27T06:31:17.187Z,16.30
2018-09-27T06:31:51.351Z,16.30
2018-09-27T06:32:24.901Z,16.30
2018-09-27T06:32:58.364Z,16.20
2018-09-27T06:33:31.929Z,16.20
2018-09-27T06:34:05.094Z,16.20
2018-09-27T06:34:39.779Z,16.30
2018-09-27T06:35:13.287Z,16.30
2018-09-27T06:35:47.586Z,16.20
2018-09-27T06:36:21.387Z,16.20
2018-09-27T06:36:54.922Z,16.20
2018-09-27T06:37:28.541Z,16.20
2018-09-27T06:38:02.282Z,16.20
2018-09-27T06:38:35.887Z,16.30
2018-09-27T06:39:11.943Z,16.30
2018-09-27T06:39:45.708Z,16.30
2018-09-27T06:40:18.974Z,16.30
2018-09-27T06:40:53.287Z,16.30
2018-09-27T06:41:26.647Z,16.30
2018-09-27T06:41:59.789Z,16.30
2018-09-27T06:42:33.169Z,16.30
2018-09-27T06:43:06.412Z,16.30
2018-09-27T06:43:39.765Z,16.30
2018-09-27T06:44:13.087Z,16.30
2018-09-27T06:44:46.598Z,16.30
2018-09-27T06:45:20.041Z,16.30
2018-09-27T06:45:54.959Z,16.30
2018-09-27T06:46:29.914Z,16.30
2018-09-27T06:47:03.388Z,16.30
2018-09-27T06:47:36.776Z,16.30
2018-09-27T06:48:11.109Z,16.30
2018-09-27T06:48:45.428Z,16.40
2018-09-27T06:49:19.508Z,16.30
2018-09-27T06:49:53.906Z,16.40
2018-09-27T06:50:28.616Z,16.40
2018-09-27T06:51:01.880Z,16.40
2018-09-27T06:51:35.442Z,16.40
2018-09-27T06:52:09.766Z,16.40
2018-09-27T06:52:44.222Z,16.40
2018-09-27T06:53:18.152Z,16.40
2018-09-27T06:59:01.502Z,16.40
2018-09-27T06:59:34.825Z,16.40
2018-09-27T07:00:11.305Z,16.40
2018-09-27T07:00:47.123Z,16.40
2018-09-27T07:01:20.265Z,16.40
2018-09-27T07:01:54.086Z,16.40
2018-09-27T07:02:27.410Z,16.50
2018-09-27T07:03:00.697Z,16.50
2018-09-27T07:03:33.874Z,16.50
2018-09-27T07:04:07.404Z,16.50
2018-09-27T07:04:40.790Z,16.50
2018-09-27T07:05:13.971Z,16.50
2018-09-27T07:05:47.122Z,16.50
2018-09-27T07:06:20.624Z,16.50
2018-09-27T07:06:53.977Z,16.50
2018-09-27T07:07:28.289Z,16.50
2018-09-27T07:08:02.127Z,16.50
2018-09-27T07:08:37.392Z,16.50
2018-09-27T07:09:12.648Z,16.50
2018-09-27T07:09:45.793Z,16.60
2018-09-27T07:10:19.189Z,16.60
2018-09-27T07:10:53.290Z,16.60
2018-09-27T07:11:26.635Z,16.60
2018-09-27T07:12:00.105Z,16.60
2018-09-27T07:12:33.716Z,16.60
2018-09-27T07:13:06.926Z,16.60
2018-09-27T07:13:40.378Z,16.70
2018-09-27T07:14:13.682Z,16.70
2018-09-27T07:14:46.787Z,16.70
2018-09-27T07:15:20.135Z,16.70
2018-09-27T07:15:53.427Z,16.70
2018-09-27T07:16:26.713Z,16.70
2018-09-27T07:16:59.978Z,16.70
2018-09-27T07:17:33.076Z,16.70
2018-09-27T07:18:06.267Z,16.70
2018-09-27T07:18:39.522Z,16.70